Latest Weather Observations for Spring Bay

IDT60801

Issued at 3:35 pm EST Thursday 24 April 2014 (issued every 30 minutes, with the page automatically refreshed every 10 minutes)

About weather observations | Map of weather stations | Latest weather observations for TAS | Other Formats
Station Details ID: 092133 Name: SPRING BAY NTC AWS Lat: -42.55 Lon: 147.93 Height: 0.0 m
Data from the previous 72 hours. | See also: Recent months for locations in Tasmania
Date/Time
EST
Temp
°C
App
Temp
°C
Dew
Point
Rel
Hum
%
Delta-T
°C
Wind Press
QNH
hPa
Press
MSL
hPa
Rain
since 9 am
mm
Dir
 
Spd
km/h
Gust
km/h
Spd
kts
Gust
kts
24/03:30pm 11.8 - - - - SW 26 33 14 18 1010.2 - -
24/03:00pm 11.9 - - - - SW 35 57 19 31 1009.5 1009.5 -
24/02:30pm 11.7 - - - - WSW 32 50 17 27 1008.9 - -
24/02:29pm 11.6 - - - - WSW 32 50 17 27 1009.0 - -
24/02:00pm 10.6 - - - - SSW 30 37 16 20 1008.4 1008.4 -
24/01:54pm 11.0 - - - - SSW 52 72 28 39 1008.4 - -
24/01:48pm 11.1 - - - - SSW 61 72 33 39 1008.2 - -
24/01:44pm 11.9 - - - - SW 39 69 21 37 1008.0 - -
24/01:30pm 11.2 - - - - WSW 30 50 16 27 1007.6 - -
24/01:08pm 11.3 - - - - WSW 33 54 18 29 1007.5 - -
24/01:00pm 11.0 - - - - WSW 32 44 17 24 1007.3 1007.3 -
24/12:40pm 11.0 - - - - WSW 37 56 20 30 1006.9 - -
24/12:30pm 10.9 - - - - WSW 44 59 24 32 1006.9 - -
24/12:10pm 12.1 - - - - SW 39 57 21 31 1006.5 - -
24/12:00pm 12.3 - - - - SSW 44 61 24 33 1006.5 1006.5 -
24/11:30am 12.2 - - - - SW 43 54 23 29 1006.1 - -
24/11:10am 12.4 - - - - WSW 41 59 22 32 1005.9 - -
24/11:00am 12.4 - - - - WSW 43 54 23 29 1005.7 1005.7 -
24/10:32am 12.5 - - - - SW 41 59 22 32 1005.1 - -
24/10:30am 12.5 - - - - SW 43 59 23 32 1005.0 - -
24/10:00am 12.7 - - - - WSW 33 56 18 30 1004.2 1004.2 -
24/09:30am 12.6 - - - - SW 26 35 14 19 1003.6 - -
24/09:00am 12.2 - - - - WSW 15 20 8 11 1003.1 1003.1 -
24/08:30am 11.4 - - - - WSW 11 19 6 10 1002.8 - -
24/08:00am 11.5 - - - - W 20 32 11 17 1002.2 1002.2 -
24/07:30am 11.3 - - - - W 7 15 4 8 1001.0 - -
24/07:00am 10.9 - - - - WNW 15 24 8 13 1000.6 1000.6 -
24/06:30am 10.9 - - - - W 20 30 11 16 1000.9 - -
24/06:00am 11.7 - - - - WSW 20 28 11 15 1001.0 1001.0 -
24/05:30am 12.0 - - - - SW 26 37 14 20 1000.7 - -
24/05:19am 12.6 - - - - SW 50 69 27 37 1000.8 - -
24/05:17am 13.5 - - - - SW 54 69 29 37 1000.8 - -
24/05:16am 14.6 - - - - W 39 69 21 37 1000.7 - -
24/05:14am 15.0 - - - - WNW 37 43 20 23 1000.1 - -
24/05:00am 14.6 - - - - NNW 32 46 17 25 998.8 998.8 -
24/04:30am 14.8 - - - - N 24 32 13 17 999.5 - -
24/04:05am 15.0 - - - - NNW 35 54 19 29 1000.1 - -
24/04:00am 14.9 - - - - NNW 35 44 19 24 999.9 999.9 -
24/03:30am 14.5 - - - - NNW 35 50 19 27 999.9 - -
24/03:00am 14.5 - - - - NW 35 52 19 28 1000.5 1000.5 -
24/02:30am 14.9 - - - - NW 50 65 27 35 1001.2 - -
24/02:16am 14.7 - - - - NW 54 72 29 39 1001.5 - -
24/02:00am 14.8 - - - - NW 56 74 30 40 1001.7 1001.7 -
24/01:30am 14.9 - - - - NW 56 85 30 46 1002.2 - -
24/01:00am 15.0 - - - - NW 50 76 27 41 1003.0 1003.0 -
24/12:59am 15.0 - - - - NW 50 76 27 41 1003.1 - -
24/12:32am 14.8 - - - - NW 28 48 15 26 1003.8 - -
24/12:30am 14.7 - - - - NW 26 48 14 26 1003.8 - -
24/12:00am 14.7 - - - - NW 26 39 14 21 1004.3 1004.3 -
 
Date/Time
EST
Temp
°C
App
Temp
°C
Dew
Point
Rel
Hum
%
Delta-T
°C
Wind Press
QNH
hPa
Press
MSL
hPa
Rain
since 9 am
mm
Dir
 
Spd
km/h
Gust
km/h
Spd
kts
Gust
kts
23/11:30pm 14.3 - - - - N 13 22 7 12 1004.7 - -
23/11:00pm 14.0 - - - - NNW 19 28 10 15 1005.5 1005.5 -
23/10:30pm 13.8 - - - - NNW 22 33 12 18 1006.1 - -
23/10:00pm 13.9 - - - - NW 26 33 14 18 1006.7 1006.7 -
23/09:30pm 13.9 - - - - NW 20 35 11 19 1007.3 - -
23/09:00pm 14.0 - - - - NNW 19 28 10 15 1007.5 1007.5 -
23/08:30pm 14.1 - - - - NNW 20 30 11 16 1007.6 - -
23/08:00pm 14.3 - - - - NNW 15 22 8 12 1007.9 1007.9 -
23/07:30pm 14.4 - - - - NNW 26 33 14 18 1008.1 - -
23/07:00pm 14.7 - - - - NNW 26 33 14 18 1008.0 1008.0 -
23/06:30pm 15.1 - - - - NW 30 37 16 20 1008.3 - -
23/06:00pm 15.4 - - - - NNW 24 32 13 17 1008.4 1008.4 -
23/05:30pm 15.8 - - - - NNW 24 30 13 16 1008.3 - -
23/05:00pm 16.1 - - - - NNW 20 26 11 14 1008.4 1008.4 -
23/04:30pm 16.3 - - - - NW 26 30 14 16 1008.7 - -
23/04:00pm 16.4 - - - - NW 24 32 13 17 1008.9 1008.9 -
23/03:30pm 16.6 - - - - NW 24 32 13 17 1009.1 - -
23/03:00pm 16.5 - - - - NW 20 28 11 15 1009.3 1009.3 -
23/02:30pm 16.4 - - - - NW 26 32 14 17 1009.6 - -
23/02:00pm 16.3 - - - - NW 20 28 11 15 1010.1 1010.1 -
23/01:30pm 16.1 - - - - NW 30 35 16 19 1010.4 - -
23/01:00pm 16.0 - - - - NW 24 32 13 17 1010.8 1010.8 -
23/12:30pm 15.8 - - - - NW 24 32 13 17 1011.3 - -
23/12:00pm 15.6 - - - - NW 33 39 18 21 1011.9 1011.9 -
23/11:30am 15.3 - - - - NNW 24 28 13 15 1012.3 - -
23/10:30am 15.3 - - - - NNW 4 13 2 7 1013.1 - -
23/10:00am 14.7 - - - - WNW 2 9 1 5 1013.7 1013.7 -
23/09:30am 13.8 - - - - NW 7 11 4 6 1013.9 - -
23/09:00am 12.9 - - - - NW 9 11 5 6 1014.1 1014.1 -
23/08:30am 12.5 - - - - NW 7 11 4 6 1014.3 - -
23/08:00am 11.8 - - - - NW 11 15 6 8 1014.3 1014.3 -
23/07:30am 12.0 - - - - NW 20 22 11 12 1014.2 - -
23/07:00am 11.0 - - - - WSW 9 15 5 8 1014.1 1014.1 -
23/06:30am 11.2 - - - - WSW 13 15 7 8 1014.0 - -
23/06:00am 10.9 - - - - W 7 11 4 6 1014.1 1014.1 -
23/05:30am 11.2 - - - - NW 13 17 7 9 1014.1 - -
23/05:00am 10.8 - - - - NW 9 13 5 7 1014.0 1014.0 -
23/04:30am 10.4 - - - - NW 7 13 4 7 1014.0 - -
23/04:00am 9.4 - - - - NNW 7 11 4 6 1013.7 1013.7 -
23/03:30am 10.3 - - - - WNW 6 7 3 4 1013.7 - -
23/03:00am 10.8 - - - - WNW 4 6 2 3 1013.8 1013.8 -
23/02:30am 11.7 - - - - NNW 6 7 3 4 1013.8 - -
23/02:00am 12.2 - - - - NW 13 17 7 9 1013.9 1013.9 -
23/01:30am 10.4 - - - - SSE 2 4 1 2 1013.9 - -
23/01:00am 10.3 - - - - NNE 2 6 1 3 1013.9 1013.9 -
23/12:30am 9.9 - - - - NW 7 9 4 5 1014.0 - -
23/12:00am 9.9 - - - - NW 9 13 5 7 1013.7 1013.7 -
 
Date/Time
EST
Temp
°C
App
Temp
°C
Dew
Point
Rel
Hum
%
Delta-T
°C
Wind Press
QNH
hPa
Press
MSL
hPa
Rain
since 9 am
mm
Dir
 
Spd
km/h
Gust
km/h
Spd
kts
Gust
kts
22/11:30pm 10.5 - - - - NNW 7 11 4 6 1013.6 - -
22/11:00pm 11.2 - - - - WSW 6 7 3 4 1013.7 1013.7 -
22/10:30pm 11.6 - - - - SW 2 6 1 3 1013.5 - -
22/10:00pm 12.1 - - - - WSW 13 17 7 9 1013.2 1013.2 -
22/09:30pm 13.4 - - - - WNW 11 15 6 8 1012.7 - -
22/09:00pm 12.9 - - - - NW 11 17 6 9 1012.4 1012.4 -
22/08:30pm 14.2 - - - - WNW 15 20 8 11 1011.9 - -
22/08:00pm 14.5 - - - - WNW 9 13 5 7 1011.7 1011.7 -
22/07:30pm 14.3 - - - - NNW 9 19 5 10 1011.4 - -
22/07:00pm 15.1 - - - - W 11 19 6 10 1011.1 1011.1 -
22/06:30pm 15.1 - - - - WNW 17 26 9 14 1010.6 - -
22/06:00pm 15.3 - - - - W 17 24 9 13 1010.1 1010.1 -
22/05:30pm 15.7 - - - - W 19 28 10 15 1009.7 - -
22/05:00pm 16.2 - - - - W 30 41 16 22 1009.3 1009.3 -
22/04:30pm 16.5 - - - - W 32 43 17 23 1008.8 - -
22/04:00pm 16.8 - - - - WSW 35 46 19 25 1008.2 1008.2 -
22/03:30pm 17.1 - - - - WSW 35 48 19 26 1008.1 - -
22/03:00pm 17.6 - - - - SW 33 46 18 25 1007.6 1007.6 -
22/02:30pm 18.2 - - - - WSW 32 48 17 26 1007.3 - -
22/02:00pm 18.4 - - - - SW 32 46 17 25 1006.9 1006.9 -
22/01:30pm 19.2 - - - - W 33 48 18 26 1006.5 - -
22/01:00pm 19.2 - - - - WSW 33 48 18 26 1006.1 1006.1 -
22/12:30pm 19.2 - - - - W 32 44 17 24 1005.9 - -
22/12:06pm 19.0 - - - - W 37 46 20 25 1006.1 - -
22/12:00pm 19.0 - - - - SW 28 41 15 22 1006.0 1006.0 -
22/11:30am 18.2 - - - - NW 17 24 9 13 1006.1 - -
22/11:00am 17.8 - - - - NNW 17 22 9 12 1006.0 1006.0 -
22/10:30am 17.4 - - - - NW 17 19 9 10 1005.6 - -
22/10:00am 17.5 - - - - NW 26 35 14 19 1005.5 1005.5 -
22/09:30am 17.4 - - - - NNW 26 33 14 18 1005.8 - -
22/09:00am 17.3 - - - - NNW 20 24 11 13 1005.5 1005.5 -
22/08:30am 17.3 - - - - NNW 19 26 10 14 1005.6 - -
22/08:00am 17.3 - - - - NNW 19 28 10 15 1005.4 1005.4 -
22/07:30am 17.3 - - - - N 17 24 9 13 1004.9 - -
22/07:00am 17.0 - - - - N 15 22 8 12 1004.4 1004.4 -
22/06:30am 17.2 - - - - NNW 20 30 11 16 1004.3 - -
22/06:00am 17.1 - - - - NNW 24 37 13 20 1003.8 1003.8 -
22/05:30am 17.2 - - - - NNW 26 41 14 22 1003.7 - -
22/05:03am 17.0 - - - - NNW 28 46 15 25 1003.6 - -
22/05:00am 17.1 - - - - NNW 26 33 14 18 1003.5 1003.5 -
22/04:30am 17.0 - - - - NNW 19 30 10 16 1003.6 - -
22/04:00am 17.1 - - - - N 17 24 9 13 1003.4 1003.4 -
22/03:37am 17.2 - - - - NW 33 39 18 21 1003.6 - -
22/03:30am 17.0 - - - - NNW 13 20 7 11 1003.6 - -
22/03:00am 17.0 - - - - NNW 22 37 12 20 1004.0 1004.0 -
22/02:30am 16.7 - - - - NNW 22 39 12 21 1004.4 - -
22/02:10am 16.5 - - - - N 28 46 15 25 1004.8 - -
22/02:00am 16.4 - - - - N 30 41 16 22 1004.8 1004.8 -

Other Formats:

Comma delimited format used in spreadsheet applications
http://www.bom.gov.au/fwo/IDT60801/IDT60801.95987.axf

JavaScript Object Notation format (JSON) in row-major order
http://www.bom.gov.au/fwo/IDT60801/IDT60801.95987.json